sensor_id;sensor_type;location;lat;lon;timestamp;P1;durP1;ratioP1;P2;durP2;ratioP2
48845;SDS011;34665;51.886;5.436;2022-09-19T00:03:56;12.52;;;2.00;;
48845;SDS011;34665;51.886;5.436;2022-09-19T00:06:24;11.23;;;2.80;;
48845;SDS011;34665;51.886;5.436;2022-09-19T00:08:52;14.85;;;2.35;;
48845;SDS011;34665;51.886;5.436;2022-09-19T00:13:44;18.90;;;2.57;;
48845;SDS011;34665;51.886;5.436;2022-09-19T00:16:17;7.85;;;1.92;;
48845;SDS011;34665;51.886;5.436;2022-09-19T00:18:45;22.02;;;3.17;;
48845;SDS011;34665;51.886;5.436;2022-09-19T00:21:17;15.83;;;3.27;;
48845;SDS011;34665;51.886;5.436;2022-09-19T00:23:46;16.73;;;2.42;;
48845;SDS011;34665;51.886;5.436;2022-09-19T00:26:30;21.17;;;2.70;;
48845;SDS011;34665;51.886;5.436;2022-09-19T00:28:56;19.08;;;3.50;;
48845;SDS011;34665;51.886;5.436;2022-09-19T00:31:22;13.33;;;2.77;;
48845;SDS011;34665;51.886;5.436;2022-09-19T00:33:48;19.45;;;3.25;;
48845;SDS011;34665;51.886;5.436;2022-09-19T00:36:14;13.73;;;2.75;;
48845;SDS011;34665;51.886;5.436;2022-09-19T00:38:41;12.05;;;1.95;;
48845;SDS011;34665;51.886;5.436;2022-09-19T00:41:08;11.27;;;2.05;;
48845;SDS011;34665;51.886;5.436;2022-09-19T00:43:56;16.73;;;2.40;;
48845;SDS011;34665;51.886;5.436;2022-09-19T00:46:23;14.33;;;2.47;;
48845;SDS011;34665;51.886;5.436;2022-09-19T00:48:53;22.93;;;2.50;;
48845;SDS011;34665;51.886;5.436;2022-09-19T00:54:19;13.87;;;2.10;;
48845;SDS011;34665;51.886;5.436;2022-09-19T00:56:50;13.20;;;2.30;;
48845;SDS011;34665;51.886;5.436;2022-09-19T00:59:18;16.33;;;2.13;;
48845;SDS011;34665;51.886;5.436;2022-09-19T01:01:46;8.23;;;1.60;;
48845;SDS011;34665;51.886;5.436;2022-09-19T01:04:15;14.10;;;1.70;;
48845;SDS011;34665;51.886;5.436;2022-09-19T01:06:51;15.53;;;2.37;;
48845;SDS011;34665;51.886;5.436;2022-09-19T01:09:26;10.03;;;1.70;;
48845;SDS011;34665;51.886;5.436;2022-09-19T01:17:55;10.07;;;2.10;;
48845;SDS011;34665;51.886;5.436;2022-09-19T01:31:16;13.40;;;3.00;;
48845;SDS011;34665;51.886;5.436;2022-09-19T01:36:23;13.13;;;2.07;;
48845;SDS011;34665;51.886;5.436;2022-09-19T01:38:56;17.63;;;1.90;;
48845;SDS011;34665;51.886;5.436;2022-09-19T01:41:30;18.10;;;2.70;;
48845;SDS011;34665;51.886;5.436;2022-09-19T01:44:00;21.17;;;2.45;;
48845;SDS011;34665;51.886;5.436;2022-09-19T01:46:37;13.50;;;2.40;;
48845;SDS011;34665;51.886;5.436;2022-09-19T01:49:27;14.23;;;3.13;;
48845;SDS011;34665;51.886;5.436;2022-09-19T01:52:14;12.37;;;1.83;;
48845;SDS011;34665;51.886;5.436;2022-09-19T01:54:52;10.27;;;2.10;;
48845;SDS011;34665;51.886;5.436;2022-09-19T02:00:05;18.40;;;2.33;;
48845;SDS011;34665;51.886;5.436;2022-09-19T02:02:45;17.70;;;2.30;;
48845;SDS011;34665;51.886;5.436;2022-09-19T02:05:17;16.63;;;2.37;;
48845;SDS011;34665;51.886;5.436;2022-09-19T02:08:01;21.40;;;2.23;;
48845;SDS011;34665;51.886;5.436;2022-09-19T02:10:43;17.27;;;2.10;;
48845;SDS011;34665;51.886;5.436;2022-09-19T02:13:14;15.43;;;2.20;;
48845;SDS011;34665;51.886;5.436;2022-09-19T02:15:48;21.03;;;2.50;;
48845;SDS011;34665;51.886;5.436;2022-09-19T02:18:28;14.60;;;2.57;;
48845;SDS011;34665;51.886;5.436;2022-09-19T02:21:04;11.40;;;1.90;;
48845;SDS011;34665;51.886;5.436;2022-09-19T02:23:36;12.47;;;2.33;;
48845;SDS011;34665;51.886;5.436;2022-09-19T02:26:05;15.10;;;2.10;;
48845;SDS011;34665;51.886;5.436;2022-09-19T02:28:38;13.53;;;2.03;;
48845;SDS011;34665;51.886;5.436;2022-09-19T02:31:09;8.37;;;1.80;;
48845;SDS011;34665;51.886;5.436;2022-09-19T02:33:38;13.30;;;2.43;;
48845;SDS011;34665;51.886;5.436;2022-09-19T02:36:16;15.50;;;2.50;;
48845;SDS011;34665;51.886;5.436;2022-09-19T02:38:55;16.50;;;2.83;;
48845;SDS011;34665;51.886;5.436;2022-09-19T02:41:59;21.08;;;3.00;;
48845;SDS011;34665;51.886;5.436;2022-09-19T02:44:28;18.83;;;2.63;;
48845;SDS011;34665;51.886;5.436;2022-09-19T02:47:07;16.48;;;2.38;;
48845;SDS011;34665;51.886;5.436;2022-09-19T02:49:43;16.63;;;2.33;;
48845;SDS011;34665;51.886;5.436;2022-09-19T02:52:15;12.30;;;2.20;;
48845;SDS011;34665;51.886;5.436;2022-09-19T02:54:49;10.87;;;2.10;;
48845;SDS011;34665;51.886;5.436;2022-09-19T02:57:21;19.73;;;2.93;;
48845;SDS011;34665;51.886;5.436;2022-09-19T02:59:49;12.40;;;1.93;;
48845;SDS011;34665;51.886;5.436;2022-09-19T03:02:23;15.80;;;3.33;;
48845;SDS011;34665;51.886;5.436;2022-09-19T03:05:11;15.33;;;2.83;;
48845;SDS011;34665;51.886;5.436;2022-09-19T03:07:45;12.80;;;2.20;;
48845;SDS011;34665;51.886;5.436;2022-09-19T03:10:26;12.17;;;2.03;;
48845;SDS011;34665;51.886;5.436;2022-09-19T03:13:06;26.77;;;3.40;;
48845;SDS011;34665;51.886;5.436;2022-09-19T03:18:14;21.03;;;2.23;;
48845;SDS011;34665;51.886;5.436;2022-09-19T03:20:49;13.60;;;1.90;;
48845;SDS011;34665;51.886;5.436;2022-09-19T03:23:27;23.00;;;2.42;;
48845;SDS011;34665;51.886;5.436;2022-09-19T03:25:58;13.43;;;2.30;;
48845;SDS011;34665;51.886;5.436;2022-09-19T03:28:24;15.60;;;2.35;;
48845;SDS011;34665;51.886;5.436;2022-09-19T03:30:53;19.07;;;2.77;;
48845;SDS011;34665;51.886;5.436;2022-09-19T03:33:22;24.70;;;2.70;;
48845;SDS011;34665;51.886;5.436;2022-09-19T03:35:48;10.82;;;1.77;;
48845;SDS011;34665;51.886;5.436;2022-09-19T03:38:15;18.17;;;3.23;;
48845;SDS011;34665;51.886;5.436;2022-09-19T03:40:41;14.90;;;2.77;;
48845;SDS011;34665;51.886;5.436;2022-09-19T03:43:07;9.40;;;1.63;;
48845;SDS011;34665;51.886;5.436;2022-09-19T03:45:34;16.17;;;2.20;;
48845;SDS011;34665;51.886;5.436;2022-09-19T03:48:00;10.27;;;1.67;;
48845;SDS011;34665;51.886;5.436;2022-09-19T03:50:26;15.07;;;3.00;;
48845;SDS011;34665;51.886;5.436;2022-09-19T03:53:02;23.63;;;3.15;;
48845;SDS011;34665;51.886;5.436;2022-09-19T03:55:28;16.07;;;2.90;;
48845;SDS011;34665;51.886;5.436;2022-09-19T03:57:54;9.27;;;2.00;;
48845;SDS011;34665;51.886;5.436;2022-09-19T04:00:20;12.10;;;2.13;;
48845;SDS011;34665;51.886;5.436;2022-09-19T04:02:47;19.07;;;2.20;;
48845;SDS011;34665;51.886;5.436;2022-09-19T04:05:15;19.13;;;2.17;;
48845;SDS011;34665;51.886;5.436;2022-09-19T04:07:41;17.10;;;3.05;;
48845;SDS011;34665;51.886;5.436;2022-09-19T04:10:07;12.07;;;1.90;;
48845;SDS011;34665;51.886;5.436;2022-09-19T04:12:36;17.87;;;3.77;;
48845;SDS011;34665;51.886;5.436;2022-09-19T04:15:02;14.70;;;1.98;;
48845;SDS011;34665;51.886;5.436;2022-09-19T04:17:27;16.88;;;2.17;;
48845;SDS011;34665;51.886;5.436;2022-09-19T04:19:59;20.83;;;2.00;;
48845;SDS011;34665;51.886;5.436;2022-09-19T04:22:31;11.77;;;2.37;;
48845;SDS011;34665;51.886;5.436;2022-09-19T04:25:20;9.17;;;2.23;;
48845;SDS011;34665;51.886;5.436;2022-09-19T04:27:57;12.00;;;2.15;;
48845;SDS011;34665;51.886;5.436;2022-09-19T04:30:27;16.63;;;2.50;;
48845;SDS011;34665;51.886;5.436;2022-09-19T04:32:57;16.50;;;3.13;;
48845;SDS011;34665;51.886;5.436;2022-09-19T04:35:24;15.30;;;2.47;;
48845;SDS011;34665;51.886;5.436;2022-09-19T04:37:50;17.15;;;2.70;;
48845;SDS011;34665;51.886;5.436;2022-09-19T04:40:16;12.82;;;2.00;;
48845;SDS011;34665;51.886;5.436;2022-09-19T04:42:42;12.38;;;2.45;;
48845;SDS011;34665;51.886;5.436;2022-09-19T04:45:09;11.63;;;2.00;;
48845;SDS011;34665;51.886;5.436;2022-09-19T04:47:55;16.77;;;2.43;;
48845;SDS011;34665;51.886;5.436;2022-09-19T04:50:27;15.53;;;2.83;;
48845;SDS011;34665;51.886;5.436;2022-09-19T04:52:58;10.57;;;1.87;;
48845;SDS011;34665;51.886;5.436;2022-09-19T04:55:25;13.43;;;2.10;;
48845;SDS011;34665;51.886;5.436;2022-09-19T04:57:58;10.53;;;1.70;;
48845;SDS011;34665;51.886;5.436;2022-09-19T05:00:26;15.63;;;2.70;;
48845;SDS011;34665;51.886;5.436;2022-09-19T05:03:10;16.67;;;2.17;;
48845;SDS011;34665;51.886;5.436;2022-09-19T05:05:42;13.17;;;2.60;;
48845;SDS011;34665;51.886;5.436;2022-09-19T05:08:21;10.20;;;1.73;;
48845;SDS011;34665;51.886;5.436;2022-09-19T05:10:56;9.93;;;2.40;;
48845;SDS011;34665;51.886;5.436;2022-09-19T05:13:24;11.50;;;1.87;;
48845;SDS011;34665;51.886;5.436;2022-09-19T05:15:54;14.97;;;1.97;;
48845;SDS011;34665;51.886;5.436;2022-09-19T05:18:21;14.43;;;2.27;;
48845;SDS011;34665;51.886;5.436;2022-09-19T05:20:50;17.10;;;3.20;;
48845;SDS011;34665;51.886;5.436;2022-09-19T05:23:18;14.67;;;3.77;;
48845;SDS011;34665;51.886;5.436;2022-09-19T05:28:10;17.10;;;2.07;;
48845;SDS011;34665;51.886;5.436;2022-09-19T05:30:37;18.63;;;2.30;;
48845;SDS011;34665;51.886;5.436;2022-09-19T05:33:05;11.33;;;2.00;;
48845;SDS011;34665;51.886;5.436;2022-09-19T05:35:43;14.20;;;1.90;;
48845;SDS011;34665;51.886;5.436;2022-09-19T05:38:19;24.10;;;2.60;;
48845;SDS011;34665;51.886;5.436;2022-09-19T05:41:05;14.90;;;2.03;;
48845;SDS011;34665;51.886;5.436;2022-09-19T05:43:49;15.77;;;2.77;;
48845;SDS011;34665;51.886;5.436;2022-09-19T05:46:16;13.63;;;2.93;;
48845;SDS011;34665;51.886;5.436;2022-09-19T05:48:47;9.63;;;2.00;;
48845;SDS011;34665;51.886;5.436;2022-09-19T05:51:13;12.23;;;2.40;;
48845;SDS011;34665;51.886;5.436;2022-09-19T05:53:38;15.93;;;2.57;;
48845;SDS011;34665;51.886;5.436;2022-09-19T05:56:42;14.97;;;2.23;;
48845;SDS011;34665;51.886;5.436;2022-09-19T05:59:10;17.17;;;2.53;;
48845;SDS011;34665;51.886;5.436;2022-09-19T06:01:38;12.00;;;2.13;;
48845;SDS011;34665;51.886;5.436;2022-09-19T06:04:10;18.13;;;2.40;;
48845;SDS011;34665;51.886;5.436;2022-09-19T06:06:38;7.40;;;1.93;;
48845;SDS011;34665;51.886;5.436;2022-09-19T06:09:06;10.30;;;2.27;;
48845;SDS011;34665;51.886;5.436;2022-09-19T06:11:39;19.93;;;2.60;;
48845;SDS011;34665;51.886;5.436;2022-09-19T06:14:06;10.88;;;2.30;;
48845;SDS011;34665;51.886;5.436;2022-09-19T06:16:48;12.83;;;2.10;;
48845;SDS011;34665;51.886;5.436;2022-09-19T06:19:39;19.20;;;3.23;;
48845;SDS011;34665;51.886;5.436;2022-09-19T06:22:25;10.10;;;1.90;;
48845;SDS011;34665;51.886;5.436;2022-09-19T06:24:53;14.97;;;2.77;;
48845;SDS011;34665;51.886;5.436;2022-09-19T06:27:19;12.27;;;2.08;;
48845;SDS011;34665;51.886;5.436;2022-09-19T06:29:46;13.70;;;2.30;;
48845;SDS011;34665;51.886;5.436;2022-09-19T06:32:32;16.23;;;2.47;;
48845;SDS011;34665;51.886;5.436;2022-09-19T06:35:16;14.63;;;2.43;;
48845;SDS011;34665;51.886;5.436;2022-09-19T06:37:44;15.37;;;2.60;;
48845;SDS011;34665;51.886;5.436;2022-09-19T06:40:10;11.90;;;2.72;;
48845;SDS011;34665;51.886;5.436;2022-09-19T06:42:40;19.70;;;1.77;;
48845;SDS011;34665;51.886;5.436;2022-09-19T06:45:37;12.40;;;2.63;;
48845;SDS011;34665;51.886;5.436;2022-09-19T06:48:38;18.00;;;3.10;;
48845;SDS011;34665;51.886;5.436;2022-09-19T06:51:24;16.97;;;1.93;;
48845;SDS011;34665;51.886;5.436;2022-09-19T06:53:51;6.90;;;2.00;;
48845;SDS011;34665;51.886;5.436;2022-09-19T06:58:42;5.53;;;1.50;;
48845;SDS011;34665;51.886;5.436;2022-09-19T07:01:09;12.90;;;1.52;;
48845;SDS011;34665;51.886;5.436;2022-09-19T07:03:34;5.77;;;1.83;;
48845;SDS011;34665;51.886;5.436;2022-09-19T07:06:01;8.37;;;2.40;;
48845;SDS011;34665;51.886;5.436;2022-09-19T07:08:33;7.43;;;1.80;;
48845;SDS011;34665;51.886;5.436;2022-09-19T07:11:01;12.10;;;2.13;;
48845;SDS011;34665;51.886;5.436;2022-09-19T07:13:27;8.95;;;1.60;;
48845;SDS011;34665;51.886;5.436;2022-09-19T07:15:59;14.33;;;1.83;;
48845;SDS011;34665;51.886;5.436;2022-09-19T07:18:32;8.70;;;1.93;;
48845;SDS011;34665;51.886;5.436;2022-09-19T07:21:13;5.63;;;1.50;;
48845;SDS011;34665;51.886;5.436;2022-09-19T07:23:44;9.60;;;1.50;;
48845;SDS011;34665;51.886;5.436;2022-09-19T07:26:29;13.23;;;2.13;;
48845;SDS011;34665;51.886;5.436;2022-09-19T07:28:54;13.53;;;1.77;;
48845;SDS011;34665;51.886;5.436;2022-09-19T07:33:47;7.47;;;1.67;;
48845;SDS011;34665;51.886;5.436;2022-09-19T07:38:41;10.97;;;2.03;;
48845;SDS011;34665;51.886;5.436;2022-09-19T07:41:23;10.60;;;2.30;;
48845;SDS011;34665;51.886;5.436;2022-09-19T07:44:08;21.63;;;2.93;;
48845;SDS011;34665;51.886;5.436;2022-09-19T07:46:36;15.87;;;2.23;;
48845;SDS011;34665;51.886;5.436;2022-09-19T07:49:10;7.97;;;2.20;;
48845;SDS011;34665;51.886;5.436;2022-09-19T07:51:49;10.45;;;1.77;;
48845;SDS011;34665;51.886;5.436;2022-09-19T07:54:16;8.17;;;2.03;;
48845;SDS011;34665;51.886;5.436;2022-09-19T07:56:42;9.60;;;1.95;;
48845;SDS011;34665;51.886;5.436;2022-09-19T07:59:07;13.38;;;1.77;;
48845;SDS011;34665;51.886;5.436;2022-09-19T08:01:45;13.03;;;2.07;;
48845;SDS011;34665;51.886;5.436;2022-09-19T08:04:23;10.13;;;1.90;;
48845;SDS011;34665;51.886;5.436;2022-09-19T08:06:54;11.50;;;2.73;;
48845;SDS011;34665;51.886;5.436;2022-09-19T08:09:20;13.40;;;2.20;;
48845;SDS011;34665;51.886;5.436;2022-09-19T08:12:02;13.27;;;2.73;;
48845;SDS011;34665;51.886;5.436;2022-09-19T08:14:36;11.00;;;1.60;;
48845;SDS011;34665;51.886;5.436;2022-09-19T08:17:02;6.78;;;2.33;;
48845;SDS011;34665;51.886;5.436;2022-09-19T08:19:29;11.73;;;1.98;;
48845;SDS011;34665;51.886;5.436;2022-09-19T08:21:56;7.30;;;1.73;;
48845;SDS011;34665;51.886;5.436;2022-09-19T08:24:22;13.93;;;2.70;;
48845;SDS011;34665;51.886;5.436;2022-09-19T08:26:51;8.60;;;1.70;;
48845;SDS011;34665;51.886;5.436;2022-09-19T08:29:18;11.07;;;2.23;;
48845;SDS011;34665;51.886;5.436;2022-09-19T08:31:52;10.07;;;1.93;;
48845;SDS011;34665;51.886;5.436;2022-09-19T08:34:19;13.13;;;1.93;;
48845;SDS011;34665;51.886;5.436;2022-09-19T08:36:48;10.90;;;1.97;;
48845;SDS011;34665;51.886;5.436;2022-09-19T08:39:13;7.65;;;1.60;;
48845;SDS011;34665;51.886;5.436;2022-09-19T08:41:54;17.60;;;1.70;;
48845;SDS011;34665;51.886;5.436;2022-09-19T08:47:19;15.70;;;2.77;;
48845;SDS011;34665;51.886;5.436;2022-09-19T08:49:50;9.23;;;2.50;;
48845;SDS011;34665;51.886;5.436;2022-09-19T08:54:49;12.33;;;2.13;;
48845;SDS011;34665;51.886;5.436;2022-09-19T08:57:34;10.83;;;1.90;;
48845;SDS011;34665;51.886;5.436;2022-09-19T09:00:13;12.27;;;2.10;;
48845;SDS011;34665;51.886;5.436;2022-09-19T09:02:58;10.93;;;1.93;;
48845;SDS011;34665;51.886;5.436;2022-09-19T09:08:22;8.60;;;1.83;;
48845;SDS011;34665;51.886;5.436;2022-09-19T09:11:15;12.00;;;2.60;;
48845;SDS011;34665;51.886;5.436;2022-09-19T09:14:05;8.57;;;1.87;;
48845;SDS011;34665;51.886;5.436;2022-09-19T09:17:01;12.13;;;2.50;;
48845;SDS011;34665;51.886;5.436;2022-09-19T09:22:41;13.53;;;2.00;;
48845;SDS011;34665;51.886;5.436;2022-09-19T09:25:35;10.53;;;2.83;;
48845;SDS011;34665;51.886;5.436;2022-09-19T09:31:04;13.80;;;2.40;;
48845;SDS011;34665;51.886;5.436;2022-09-19T09:33:40;12.67;;;3.97;;
48845;SDS011;34665;51.886;5.436;2022-09-19T09:36:17;6.10;;;2.53;;
48845;SDS011;34665;51.886;5.436;2022-09-19T09:38:52;9.80;;;1.57;;
48845;SDS011;34665;51.886;5.436;2022-09-19T09:41:31;5.90;;;1.20;;
48845;SDS011;34665;51.886;5.436;2022-09-19T09:49:35;10.20;;;1.53;;
48845;SDS011;34665;51.886;5.436;2022-09-19T09:52:06;9.05;;;2.25;;
48845;SDS011;34665;51.886;5.436;2022-09-19T09:54:41;11.57;;;2.70;;
48845;SDS011;34665;51.886;5.436;2022-09-19T09:57:46;10.20;;;2.30;;
48845;SDS011;34665;51.886;5.436;2022-09-19T10:00:29;8.37;;;2.83;;
48845;SDS011;34665;51.886;5.436;2022-09-19T10:07:00;11.30;;;1.87;;
48845;SDS011;34665;51.886;5.436;2022-09-19T10:09:43;7.17;;;1.80;;
48845;SDS011;34665;51.886;5.436;2022-09-19T10:12:57;8.10;;;2.43;;
48845;SDS011;34665;51.886;5.436;2022-09-19T10:15:17;8.90;;;1.63;;
48845;SDS011;34665;51.886;5.436;2022-09-19T10:18:01;7.17;;;1.60;;
48845;SDS011;34665;51.886;5.436;2022-09-19T10:20:38;8.57;;;1.57;;
48845;SDS011;34665;51.886;5.436;2022-09-19T10:23:14;6.50;;;1.80;;
48845;SDS011;34665;51.886;5.436;2022-09-19T10:25:46;6.60;;;1.43;;
48845;SDS011;34665;51.886;5.436;2022-09-19T10:28:16;6.73;;;1.60;;
48845;SDS011;34665;51.886;5.436;2022-09-19T10:31:21;5.60;;;1.43;;
48845;SDS011;34665;51.886;5.436;2022-09-19T10:33:54;9.70;;;1.50;;
48845;SDS011;34665;51.886;5.436;2022-09-19T10:36:26;7.80;;;1.53;;
48845;SDS011;34665;51.886;5.436;2022-09-19T10:38:58;4.70;;;1.37;;
48845;SDS011;34665;51.886;5.436;2022-09-19T10:41:30;3.40;;;1.47;;
48845;SDS011;34665;51.886;5.436;2022-09-19T10:43:59;6.77;;;1.23;;
48845;SDS011;34665;51.886;5.436;2022-09-19T10:46:32;9.93;;;1.60;;
48845;SDS011;34665;51.886;5.436;2022-09-19T10:49:45;8.27;;;1.50;;
48845;SDS011;34665;51.886;5.436;2022-09-19T10:52:21;7.63;;;1.40;;
48845;SDS011;34665;51.886;5.436;2022-09-19T10:54:50;7.60;;;1.30;;
48845;SDS011;34665;51.886;5.436;2022-09-19T10:57:34;9.07;;;1.63;;
48845;SDS011;34665;51.886;5.436;2022-09-19T11:02:55;4.77;;;1.37;;
48845;SDS011;34665;51.886;5.436;2022-09-19T11:05:42;8.87;;;1.80;;
48845;SDS011;34665;51.886;5.436;2022-09-19T11:08:24;6.73;;;1.70;;
48845;SDS011;34665;51.886;5.436;2022-09-19T11:10:54;10.57;;;2.60;;
48845;SDS011;34665;51.886;5.436;2022-09-19T11:13:29;9.37;;;2.10;;
48845;SDS011;34665;51.886;5.436;2022-09-19T11:16:31;7.17;;;2.10;;
48845;SDS011;34665;51.886;5.436;2022-09-19T11:21:40;7.93;;;1.40;;
48845;SDS011;34665;51.886;5.436;2022-09-19T11:24:44;5.13;;;1.30;;
48845;SDS011;34665;51.886;5.436;2022-09-19T11:27:36;11.93;;;2.90;;
48845;SDS011;34665;51.886;5.436;2022-09-19T11:30:25;13.00;;;2.30;;
48845;SDS011;34665;51.886;5.436;2022-09-19T11:36:05;8.00;;;1.37;;
48845;SDS011;34665;51.886;5.436;2022-09-19T11:41:34;8.63;;;1.43;;
48845;SDS011;34665;51.886;5.436;2022-09-19T11:44:37;8.53;;;1.70;;
48845;SDS011;34665;51.886;5.436;2022-09-19T11:50:10;10.13;;;2.37;;
48845;SDS011;34665;51.886;5.436;2022-09-19T12:04:23;9.10;;;1.10;;
48845;SDS011;34665;51.886;5.436;2022-09-19T12:10:25;4.28;;;0.95;;
48845;SDS011;34665;51.886;5.436;2022-09-19T12:13:00;7.25;;;1.40;;
48845;SDS011;34665;51.886;5.436;2022-09-19T12:15:43;4.18;;;1.38;;
48845;SDS011;34665;51.886;5.436;2022-09-19T12:18:19;4.50;;;1.58;;
48845;SDS011;34665;51.886;5.436;2022-09-19T12:20:52;4.38;;;1.40;;
48845;SDS011;34665;51.886;5.436;2022-09-19T12:23:24;6.05;;;1.63;;
48845;SDS011;34665;51.886;5.436;2022-09-19T12:26:20;7.15;;;1.90;;
48845;SDS011;34665;51.886;5.436;2022-09-19T12:29:03;6.93;;;2.22;;
48845;SDS011;34665;51.886;5.436;2022-09-19T12:31:35;4.90;;;1.83;;
48845;SDS011;34665;51.886;5.436;2022-09-19T12:34:07;5.53;;;1.23;;
48845;SDS011;34665;51.886;5.436;2022-09-19T12:36:48;7.80;;;2.38;;
48845;SDS011;34665;51.886;5.436;2022-09-19T12:42:02;6.83;;;1.60;;
48845;SDS011;34665;51.886;5.436;2022-09-19T12:45:21;5.80;;;1.20;;
48845;SDS011;34665;51.886;5.436;2022-09-19T12:47:45;7.10;;;1.80;;
48845;SDS011;34665;51.886;5.436;2022-09-19T12:50:46;9.23;;;2.30;;
48845;SDS011;34665;51.886;5.436;2022-09-19T13:01:28;6.63;;;1.15;;
48845;SDS011;34665;51.886;5.436;2022-09-19T13:06:52;4.13;;;0.90;;
48845;SDS011;34665;51.886;5.436;2022-09-19T13:09:22;4.78;;;1.33;;
48845;SDS011;34665;51.886;5.436;2022-09-19T13:12:05;4.60;;;1.38;;
48845;SDS011;34665;51.886;5.436;2022-09-19T13:14:47;3.92;;;1.10;;
48845;SDS011;34665;51.886;5.436;2022-09-19T13:17:20;7.55;;;1.30;;
48845;SDS011;34665;51.886;5.436;2022-09-19T13:20:13;3.83;;;1.10;;
48845;SDS011;34665;51.886;5.436;2022-09-19T13:23:01;3.67;;;1.00;;
48845;SDS011;34665;51.886;5.436;2022-09-19T13:25:47;9.23;;;1.70;;
48845;SDS011;34665;51.886;5.436;2022-09-19T13:28:22;5.85;;;1.67;;
48845;SDS011;34665;51.886;5.436;2022-09-19T13:33:44;4.32;;;1.20;;
48845;SDS011;34665;51.886;5.436;2022-09-19T13:36:14;4.70;;;1.35;;
48845;SDS011;34665;51.886;5.436;2022-09-19T13:38:50;5.00;;;1.17;;
48845;SDS011;34665;51.886;5.436;2022-09-19T13:42:03;6.18;;;1.55;;
48845;SDS011;34665;51.886;5.436;2022-09-19T13:47:13;5.07;;;1.10;;
48845;SDS011;34665;51.886;5.436;2022-09-19T13:49:49;5.00;;;1.83;;
48845;SDS011;34665;51.886;5.436;2022-09-19T13:52:25;5.30;;;1.95;;
48845;SDS011;34665;51.886;5.436;2022-09-19T13:57:34;4.90;;;1.40;;
48845;SDS011;34665;51.886;5.436;2022-09-19T14:09:13;5.50;;;0.63;;
48845;SDS011;34665;51.886;5.436;2022-09-19T14:11:39;4.20;;;0.70;;
48845;SDS011;34665;51.886;5.436;2022-09-19T14:14:51;2.05;;;0.90;;
48845;SDS011;34665;51.886;5.436;2022-09-19T14:17:11;3.93;;;0.93;;
48845;SDS011;34665;51.886;5.436;2022-09-19T14:19:44;9.20;;;0.85;;
48845;SDS011;34665;51.886;5.436;2022-09-19T14:27:34;3.53;;;0.70;;
48845;SDS011;34665;51.886;5.436;2022-09-19T14:30:56;4.20;;;1.27;;
48845;SDS011;34665;51.886;5.436;2022-09-19T14:33:22;3.20;;;1.17;;
48845;SDS011;34665;51.886;5.436;2022-09-19T14:41:43;5.73;;;1.20;;
48845;SDS011;34665;51.886;5.436;2022-09-19T14:47:05;3.78;;;1.13;;
48845;SDS011;34665;51.886;5.436;2022-09-19T14:49:44;3.35;;;1.00;;
48845;SDS011;34665;51.886;5.436;2022-09-19T14:52:19;3.53;;;0.80;;
48845;SDS011;34665;51.886;5.436;2022-09-19T14:54:50;5.43;;;1.13;;
48845;SDS011;34665;51.886;5.436;2022-09-19T14:57:21;4.28;;;0.73;;
48845;SDS011;34665;51.886;5.436;2022-09-19T14:59:48;2.55;;;0.45;;
48845;SDS011;34665;51.886;5.436;2022-09-19T15:02:17;4.93;;;0.80;;
48845;SDS011;34665;51.886;5.436;2022-09-19T15:05:25;2.95;;;0.47;;
48845;SDS011;34665;51.886;5.436;2022-09-19T15:07:54;4.60;;;1.17;;
48845;SDS011;34665;51.886;5.436;2022-09-19T15:10:32;5.10;;;1.40;;
48845;SDS011;34665;51.886;5.436;2022-09-19T15:15:45;2.33;;;0.80;;
48845;SDS011;34665;51.886;5.436;2022-09-19T15:18:18;2.37;;;0.73;;
48845;SDS011;34665;51.886;5.436;2022-09-19T15:20:47;2.90;;;0.73;;
48845;SDS011;34665;51.886;5.436;2022-09-19T15:23:17;2.90;;;0.70;;
48845;SDS011;34665;51.886;5.436;2022-09-19T15:25:42;7.40;;;0.95;;
48845;SDS011;34665;51.886;5.436;2022-09-19T15:28:25;7.82;;;1.10;;
48845;SDS011;34665;51.886;5.436;2022-09-19T15:30:54;5.73;;;1.57;;
48845;SDS011;34665;51.886;5.436;2022-09-19T15:33:25;5.23;;;2.50;;
48845;SDS011;34665;51.886;5.436;2022-09-19T15:35:52;4.10;;;1.30;;
48845;SDS011;34665;51.886;5.436;2022-09-19T15:38:27;7.93;;;2.53;;
48845;SDS011;34665;51.886;5.436;2022-09-19T15:40:58;8.00;;;3.13;;
48845;SDS011;34665;51.886;5.436;2022-09-19T15:43:26;8.03;;;1.60;;
48845;SDS011;34665;51.886;5.436;2022-09-19T15:45:54;5.43;;;1.77;;
48845;SDS011;34665;51.886;5.436;2022-09-19T15:50:56;8.23;;;2.73;;
48845;SDS011;34665;51.886;5.436;2022-09-19T15:53:43;8.23;;;1.77;;
48845;SDS011;34665;51.886;5.436;2022-09-19T15:56:10;9.63;;;1.90;;
48845;SDS011;34665;51.886;5.436;2022-09-19T15:58:41;10.33;;;1.87;;
48845;SDS011;34665;51.886;5.436;2022-09-19T16:01:10;8.77;;;1.70;;
48845;SDS011;34665;51.886;5.436;2022-09-19T16:03:37;8.97;;;2.53;;
48845;SDS011;34665;51.886;5.436;2022-09-19T16:06:05;8.40;;;1.33;;
48845;SDS011;34665;51.886;5.436;2022-09-19T16:09:04;10.17;;;2.20;;
48845;SDS011;34665;51.886;5.436;2022-09-19T16:11:36;6.23;;;2.87;;
48845;SDS011;34665;51.886;5.436;2022-09-19T16:14:19;7.37;;;2.20;;
48845;SDS011;34665;51.886;5.436;2022-09-19T16:16:51;11.17;;;2.00;;
48845;SDS011;34665;51.886;5.436;2022-09-19T16:19:19;6.80;;;1.97;;
48845;SDS011;34665;51.886;5.436;2022-09-19T16:21:45;7.67;;;2.13;;
48845;SDS011;34665;51.886;5.436;2022-09-19T16:24:22;8.38;;;1.50;;
48845;SDS011;34665;51.886;5.436;2022-09-19T16:26:51;10.83;;;2.30;;
48845;SDS011;34665;51.886;5.436;2022-09-19T16:29:21;5.33;;;1.40;;
48845;SDS011;34665;51.886;5.436;2022-09-19T16:31:51;9.27;;;1.90;;
48845;SDS011;34665;51.886;5.436;2022-09-19T16:34:28;14.97;;;2.17;;
48845;SDS011;34665;51.886;5.436;2022-09-19T16:36:58;8.50;;;1.67;;
48845;SDS011;34665;51.886;5.436;2022-09-19T16:49:10;13.60;;;2.30;;
48845;SDS011;34665;51.886;5.436;2022-09-19T16:54:03;12.03;;;2.50;;
48845;SDS011;34665;51.886;5.436;2022-09-19T16:56:36;6.57;;;1.50;;
48845;SDS011;34665;51.886;5.436;2022-09-19T16:59:08;6.57;;;1.97;;
48845;SDS011;34665;51.886;5.436;2022-09-19T17:01:34;11.13;;;2.00;;
48845;SDS011;34665;51.886;5.436;2022-09-19T17:04:00;10.37;;;2.17;;
48845;SDS011;34665;51.886;5.436;2022-09-19T17:06:26;9.98;;;1.95;;
48845;SDS011;34665;51.886;5.436;2022-09-19T17:08:52;14.32;;;2.22;;
48845;SDS011;34665;51.886;5.436;2022-09-19T17:11:17;10.63;;;2.37;;
48845;SDS011;34665;51.886;5.436;2022-09-19T17:16:09;17.40;;;3.03;;
48845;SDS011;34665;51.886;5.436;2022-09-19T17:18:37;10.00;;;2.07;;
48845;SDS011;34665;51.886;5.436;2022-09-19T17:21:05;7.67;;;2.40;;
48845;SDS011;34665;51.886;5.436;2022-09-19T17:23:33;6.37;;;1.90;;
48845;SDS011;34665;51.886;5.436;2022-09-19T17:25:59;7.43;;;2.35;;
48845;SDS011;34665;51.886;5.436;2022-09-19T17:28:26;11.80;;;2.40;;
48845;SDS011;34665;51.886;5.436;2022-09-19T17:30:53;9.47;;;2.63;;
48845;SDS011;34665;51.886;5.436;2022-09-19T17:33:21;14.50;;;3.13;;
48845;SDS011;34665;51.886;5.436;2022-09-19T17:35:48;16.20;;;2.60;;
48845;SDS011;34665;51.886;5.436;2022-09-19T17:38:15;12.17;;;3.83;;
48845;SDS011;34665;51.886;5.436;2022-09-19T17:40:41;12.07;;;3.25;;
48845;SDS011;34665;51.886;5.436;2022-09-19T17:43:11;14.90;;;3.10;;
48845;SDS011;34665;51.886;5.436;2022-09-19T17:45:41;17.80;;;3.07;;
48845;SDS011;34665;51.886;5.436;2022-09-19T17:48:08;12.70;;;2.50;;
48845;SDS011;34665;51.886;5.436;2022-09-19T17:50:35;14.17;;;3.53;;
48845;SDS011;34665;51.886;5.436;2022-09-19T17:53:00;15.00;;;2.83;;
48845;SDS011;34665;51.886;5.436;2022-09-19T17:55:26;11.83;;;2.93;;
48845;SDS011;34665;51.886;5.436;2022-09-19T17:57:51;9.90;;;2.83;;
48845;SDS011;34665;51.886;5.436;2022-09-19T18:00:18;11.10;;;2.80;;
48845;SDS011;34665;51.886;5.436;2022-09-19T18:02:43;12.70;;;3.05;;